createdAt,value
2023-02-26T00:00:12.522Z,75.03
2023-02-26T00:02:40.369Z,75.33
2023-02-26T00:05:08.059Z,75.30
2023-02-26T00:07:36.363Z,75.73
2023-02-26T00:10:04.257Z,75.18
2023-02-26T00:12:32.742Z,75.88
2023-02-26T00:15:00.498Z,76.31
2023-02-26T00:17:28.492Z,76.08
2023-02-26T00:19:56.388Z,75.89
2023-02-26T00:22:24.122Z,76.18
2023-02-26T00:24:52.157Z,76.65
2023-02-26T00:27:20.140Z,76.08
2023-02-26T00:29:47.813Z,75.63
2023-02-26T00:32:18.271Z,75.91
2023-02-26T00:34:45.968Z,76.36
2023-02-26T00:37:13.697Z,76.40
2023-02-26T00:39:41.380Z,75.96
2023-02-26T00:42:09.015Z,76.29
2023-02-26T00:44:36.734Z,75.87
2023-02-26T00:47:04.465Z,76.28
2023-02-26T00:49:32.540Z,76.48
2023-02-26T00:52:00.156Z,76.36
2023-02-26T00:54:27.813Z,77.09
2023-02-26T00:56:55.582Z,76.60
2023-02-26T00:59:23.224Z,76.89
2023-02-26T01:01:50.889Z,76.51
2023-02-26T01:04:18.523Z,76.50
2023-02-26T01:06:46.093Z,76.41
2023-02-26T01:09:13.956Z,76.76
2023-02-26T01:11:41.576Z,76.97
2023-02-26T01:14:09.535Z,76.67
2023-02-26T01:16:37.517Z,76.63
2023-02-26T01:19:05.150Z,77.12
2023-02-26T01:21:33.199Z,77.18
2023-02-26T01:24:00.845Z,76.43
2023-02-26T01:26:28.825Z,76.87
2023-02-26T01:28:56.411Z,76.83
2023-02-26T01:31:24.127Z,77.22
2023-02-26T01:33:51.934Z,76.74
2023-02-26T01:36:19.508Z,76.77
2023-02-26T01:38:47.860Z,77.31
2023-02-26T01:41:15.494Z,77.17
2023-02-26T01:43:43.112Z,76.94
2023-02-26T01:46:10.829Z,77.32
2023-02-26T01:48:38.461Z,77.49
2023-02-26T01:51:06.495Z,76.71
2023-02-26T01:53:34.174Z,77.59
2023-02-26T01:56:01.792Z,77.25
2023-02-26T01:58:29.587Z,77.34
2023-02-26T02:00:57.701Z,76.97
2023-02-26T02:03:25.880Z,77.03
2023-02-26T02:05:53.630Z,77.07
2023-02-26T02:08:21.333Z,76.84
2023-02-26T02:10:49.232Z,77.43
2023-02-26T02:13:16.831Z,77.22
2023-02-26T02:15:44.828Z,77.07
2023-02-26T02:18:12.427Z,77.31
2023-02-26T02:20:39.989Z,77.00
2023-02-26T02:23:09.094Z,77.26
2023-02-26T02:25:36.700Z,76.85
2023-02-26T02:28:04.664Z,77.23
2023-02-26T02:30:32.313Z,76.82
2023-02-26T02:32:59.983Z,76.93
2023-02-26T02:35:27.734Z,76.64
2023-02-26T02:37:55.361Z,76.75
2023-02-26T02:40:22.950Z,76.10
2023-02-26T02:42:50.575Z,76.47
2023-02-26T02:45:18.702Z,75.90
2023-02-26T02:47:46.345Z,75.90
2023-02-26T02:50:13.938Z,76.22
2023-02-26T02:52:41.909Z,76.30
2023-02-26T02:55:09.908Z,76.29
2023-02-26T02:57:37.546Z,76.59
2023-02-26T03:00:06.207Z,76.06
2023-02-26T03:02:33.803Z,75.91
2023-02-26T03:05:01.821Z,75.93
2023-02-26T03:07:29.859Z,75.66
2023-02-26T03:09:57.476Z,75.73
2023-02-26T03:12:25.571Z,75.81
2023-02-26T03:14:53.215Z,75.76
2023-02-26T03:17:21.252Z,75.48
2023-02-26T03:19:48.912Z,75.39
2023-02-26T03:22:16.537Z,76.12
2023-02-26T03:24:44.314Z,75.71
2023-02-26T03:27:11.910Z,75.78
2023-02-26T03:29:40.352Z,75.59
2023-02-26T03:32:08.020Z,75.31
2023-02-26T03:34:35.645Z,76.06
2023-02-26T03:37:03.358Z,75.19
2023-02-26T03:39:30.967Z,75.41
2023-02-26T03:41:58.721Z,75.90
2023-02-26T03:44:26.334Z,76.11
2023-02-26T03:46:53.927Z,75.98
2023-02-26T03:49:21.691Z,75.65
2023-02-26T03:51:49.729Z,75.53
2023-02-26T03:54:17.477Z,75.70
2023-02-26T03:56:45.024Z,75.72
2023-02-26T03:59:12.747Z,75.95
2023-02-26T04:01:41.183Z,75.70
2023-02-26T04:04:08.821Z,76.30
2023-02-26T04:06:36.830Z,76.05
2023-02-26T04:09:04.372Z,76.44
2023-02-26T04:11:31.985Z,76.17
2023-02-26T04:14:00.668Z,75.67
2023-02-26T04:16:28.470Z,76.26
2023-02-26T04:18:56.406Z,76.33
2023-02-26T04:21:24.077Z,75.77
2023-02-26T04:23:51.637Z,76.24
2023-02-26T04:26:19.195Z,76.38
2023-02-26T04:28:46.843Z,76.09
2023-02-26T04:31:16.020Z,76.25
2023-02-26T04:33:43.629Z,76.69
2023-02-26T04:36:11.224Z,77.08
2023-02-26T04:38:39.825Z,76.58
2023-02-26T04:41:07.460Z,76.24
2023-02-26T04:43:36.034Z,76.75
2023-02-26T04:46:03.664Z,76.28
2023-02-26T04:48:31.232Z,76.89
2023-02-26T04:50:58.838Z,76.89
2023-02-26T04:53:26.392Z,77.12
2023-02-26T04:55:54.354Z,77.06
2023-02-26T04:58:22.363Z,77.02
2023-02-26T05:00:49.963Z,77.19
2023-02-26T05:03:17.746Z,77.12
2023-02-26T05:05:45.334Z,77.48
2023-02-26T05:08:13.378Z,77.64
2023-02-26T05:10:40.986Z,77.32
2023-02-26T05:13:08.588Z,77.75
2023-02-26T05:15:36.157Z,77.61
2023-02-26T05:18:03.745Z,77.33
2023-02-26T05:20:32.174Z,77.44
2023-02-26T05:22:59.751Z,77.41
2023-02-26T05:25:27.322Z,77.52
2023-02-26T05:27:55.875Z,77.47
2023-02-26T05:30:23.451Z,77.69
2023-02-26T05:32:51.473Z,77.47
2023-02-26T05:35:19.063Z,78.02
2023-02-26T05:37:46.634Z,77.78
2023-02-26T05:40:14.449Z,77.37
2023-02-26T05:42:42.489Z,77.19
2023-02-26T05:45:10.410Z,78.08
2023-02-26T05:47:37.961Z,77.65
2023-02-26T05:50:05.586Z,77.85
2023-02-26T05:52:33.516Z,77.56
2023-02-26T05:55:01.185Z,77.38
2023-02-26T05:57:29.117Z,77.62
2023-02-26T05:59:56.660Z,77.45
2023-02-26T06:02:24.276Z,77.53
2023-02-26T06:04:51.921Z,78.11
2023-02-26T06:07:19.532Z,77.87
2023-02-26T06:09:47.533Z,78.07
2023-02-26T06:12:15.392Z,77.59
2023-02-26T06:14:43.021Z,77.96
2023-02-26T06:17:10.809Z,78.23
2023-02-26T06:19:38.445Z,78.11
2023-02-26T06:22:06.399Z,78.11
2023-02-26T06:24:33.963Z,78.07
2023-02-26T06:27:02.001Z,77.96
2023-02-26T06:29:29.769Z,77.82
2023-02-26T06:31:57.525Z,77.93
2023-02-26T06:34:25.584Z,77.74
2023-02-26T06:36:53.149Z,77.10
2023-02-26T06:39:20.749Z,77.22
2023-02-26T06:41:48.550Z,77.46
2023-02-26T06:44:16.203Z,77.06
2023-02-26T06:46:44.164Z,76.96
2023-02-26T06:49:12.218Z,76.43
2023-02-26T06:51:39.839Z,76.65
2023-02-26T06:54:07.669Z,76.88
2023-02-26T06:56:35.273Z,76.68
2023-02-26T06:59:03.299Z,76.16
2023-02-26T07:01:32.754Z,76.16
2023-02-26T07:04:00.412Z,76.26
2023-02-26T07:06:28.314Z,76.32
2023-02-26T07:08:55.981Z,75.96
2023-02-26T07:11:24.465Z,75.60
2023-02-26T07:13:52.656Z,75.90
2023-02-26T07:16:20.262Z,75.81
2023-02-26T07:18:48.119Z,75.54
2023-02-26T07:21:15.715Z,74.75
2023-02-26T07:23:43.761Z,75.15
2023-02-26T07:26:11.378Z,75.79
2023-02-26T07:28:38.944Z,75.72
2023-02-26T07:31:06.809Z,74.91
2023-02-26T07:33:35.271Z,75.38
2023-02-26T07:36:03.276Z,74.72
2023-02-26T07:38:30.889Z,75.36
2023-02-26T07:40:58.576Z,74.79
2023-02-26T07:43:26.366Z,75.24
2023-02-26T07:45:54.227Z,75.28
2023-02-26T07:48:22.469Z,75.11
2023-02-26T07:50:50.141Z,74.41
2023-02-26T07:53:17.789Z,74.94
2023-02-26T07:55:46.887Z,74.70
2023-02-26T07:58:14.568Z,74.52
2023-02-26T08:00:42.660Z,75.07
2023-02-26T08:03:10.361Z,74.70
2023-02-26T08:05:37.998Z,74.68
2023-02-26T08:08:05.901Z,74.37
2023-02-26T08:10:33.552Z,74.06
2023-02-26T08:13:01.540Z,73.82
2023-02-26T08:15:29.239Z,74.10
2023-02-26T08:17:57.374Z,73.99
2023-02-26T08:20:25.077Z,73.99
2023-02-26T08:22:52.826Z,73.53
2023-02-26T08:25:20.926Z,73.31
2023-02-26T08:27:48.565Z,73.50
2023-02-26T08:30:16.345Z,73.49
2023-02-26T08:32:44.291Z,73.54
2023-02-26T08:35:12.106Z,73.57
2023-02-26T08:37:40.191Z,73.05
2023-02-26T08:40:08.666Z,72.63
2023-02-26T08:42:36.342Z,72.43
2023-02-26T08:45:04.076Z,72.09
2023-02-26T08:47:32.082Z,72.17
2023-02-26T08:50:00.869Z,71.74
2023-02-26T08:52:28.689Z,71.85
2023-02-26T08:54:56.482Z,71.23
2023-02-26T08:57:24.289Z,71.33
2023-02-26T08:59:52.034Z,71.08
2023-02-26T09:02:20.193Z,71.27
2023-02-26T09:04:47.980Z,70.05
2023-02-26T09:07:15.771Z,69.54
2023-02-26T09:09:44.782Z,69.34
2023-02-26T09:12:13.205Z,69.69
2023-02-26T09:14:41.641Z,69.69
2023-02-26T09:17:09.576Z,70.21
2023-02-26T09:19:37.286Z,69.89
2023-02-26T09:22:06.584Z,69.93
2023-02-26T09:24:34.441Z,70.23
2023-02-26T09:27:04.396Z,70.65
2023-02-26T09:29:32.092Z,69.94
2023-02-26T09:31:59.956Z,69.91
2023-02-26T09:34:28.070Z,70.38
2023-02-26T09:36:55.790Z,70.07
2023-02-26T09:39:25.061Z,69.45
2023-02-26T09:41:52.703Z,69.89
2023-02-26T09:44:23.018Z,70.00
2023-02-26T09:46:50.859Z,69.86
2023-02-26T09:49:19.387Z,69.77
2023-02-26T09:51:49.806Z,69.47
2023-02-26T09:54:18.008Z,68.88
2023-02-26T09:56:45.706Z,68.89
2023-02-26T09:59:13.678Z,69.07
2023-02-26T10:01:44.169Z,68.69
2023-02-26T10:04:12.780Z,68.94
2023-02-26T10:06:41.148Z,69.00
2023-02-26T10:09:09.046Z,68.98
2023-02-26T10:11:37.000Z,69.05
2023-02-26T10:14:05.057Z,68.99
2023-02-26T10:16:33.470Z,68.63
2023-02-26T10:19:02.371Z,68.56
2023-02-26T10:21:30.421Z,67.78
2023-02-26T10:23:58.481Z,67.67
2023-02-26T10:26:26.373Z,66.59
2023-02-26T10:28:55.022Z,65.58
2023-02-26T10:31:23.117Z,64.72
2023-02-26T10:33:50.974Z,64.78
2023-02-26T10:36:18.909Z,64.02
2023-02-26T10:38:46.915Z,62.90
2023-02-26T10:41:15.206Z,60.43
2023-02-26T10:43:42.964Z,59.01
2023-02-26T10:46:10.996Z,58.58
2023-02-26T10:48:38.931Z,56.73
2023-02-26T10:51:07.495Z,56.29
2023-02-26T10:53:35.935Z,55.17
2023-02-26T10:56:03.857Z,54.82
2023-02-26T10:58:31.820Z,53.53
2023-02-26T11:00:59.776Z,52.76
2023-02-26T11:03:27.556Z,52.09
2023-02-26T11:05:57.444Z,54.13
2023-02-26T11:08:25.499Z,54.23
2023-02-26T11:10:53.455Z,56.29
2023-02-26T11:13:22.825Z,58.68
2023-02-26T11:15:51.677Z,61.17
2023-02-26T11:18:21.306Z,62.06
2023-02-26T11:20:49.184Z,62.14
2023-02-26T11:23:17.177Z,58.93
2023-02-26T11:25:45.137Z,58.03
2023-02-26T11:28:12.925Z,57.82
2023-02-26T11:30:40.835Z,57.35
2023-02-26T11:33:08.985Z,56.56
2023-02-26T11:35:36.733Z,54.94
2023-02-26T11:38:05.038Z,53.90
2023-02-26T11:40:32.923Z,52.11
2023-02-26T11:43:01.305Z,51.26
2023-02-26T11:45:29.387Z,49.99
2023-02-26T11:47:57.240Z,49.04
2023-02-26T11:50:26.207Z,51.09
2023-02-26T11:52:54.326Z,51.37
2023-02-26T11:55:22.850Z,49.81
2023-02-26T11:57:50.591Z,49.30
2023-02-26T12:00:19.011Z,49.25
2023-02-26T12:02:46.827Z,48.41
2023-02-26T12:05:14.792Z,45.99
2023-02-26T12:07:43.414Z,45.96
2023-02-26T12:10:11.217Z,45.16
2023-02-26T12:12:39.081Z,46.38
2023-02-26T12:15:06.987Z,45.81
2023-02-26T12:17:35.318Z,47.09
2023-02-26T12:20:05.529Z,47.77
2023-02-26T12:22:33.481Z,50.04
2023-02-26T12:25:01.358Z,51.31
2023-02-26T12:27:29.621Z,51.56
2023-02-26T12:29:59.481Z,51.17
2023-02-26T12:32:28.160Z,49.58
2023-02-26T12:34:56.193Z,48.53
2023-02-26T12:37:24.090Z,48.17
2023-02-26T12:39:53.486Z,47.71
2023-02-26T12:42:21.327Z,47.83
2023-02-26T12:44:49.506Z,46.82
2023-02-26T12:47:17.711Z,46.60
2023-02-26T12:49:45.534Z,44.73
2023-02-26T12:52:16.387Z,46.25
2023-02-26T12:54:44.270Z,48.50
2023-02-26T12:57:12.812Z,51.04
2023-02-26T12:59:40.823Z,52.52
2023-02-26T13:02:08.612Z,54.23
2023-02-26T13:04:36.837Z,54.73
2023-02-26T13:07:07.770Z,53.61
2023-02-26T13:09:36.240Z,51.61
2023-02-26T13:12:04.225Z,51.29
2023-02-26T13:14:32.029Z,50.65
2023-02-26T13:16:59.839Z,50.21
2023-02-26T13:19:27.719Z,49.63
2023-02-26T13:21:56.492Z,49.19
2023-02-26T13:24:24.451Z,49.51
2023-02-26T13:26:52.239Z,50.88
2023-02-26T13:29:20.573Z,51.24
2023-02-26T13:31:48.505Z,52.42
2023-02-26T13:34:16.613Z,53.08
2023-02-26T13:36:44.631Z,53.29
2023-02-26T13:39:12.528Z,53.78
2023-02-26T13:41:40.881Z,52.52
2023-02-26T13:44:09.461Z,51.69
2023-02-26T13:46:37.598Z,51.37
2023-02-26T13:49:05.536Z,51.17
2023-02-26T13:51:33.739Z,50.44
2023-02-26T13:54:01.936Z,50.77
2023-02-26T13:56:29.719Z,50.61
2023-02-26T13:58:58.281Z,51.74
2023-02-26T14:01:26.351Z,52.88
2023-02-26T14:03:54.396Z,53.37
2023-02-26T14:06:23.169Z,54.02
2023-02-26T14:08:51.032Z,52.38
2023-02-26T14:11:19.286Z,51.52
2023-02-26T14:13:47.156Z,50.78
2023-02-26T14:16:15.015Z,50.55
2023-02-26T14:18:43.498Z,51.29
2023-02-26T14:21:11.593Z,51.93
2023-02-26T14:23:39.933Z,51.97
2023-02-26T14:26:07.844Z,52.18
2023-02-26T14:28:36.387Z,51.74
2023-02-26T14:31:04.566Z,51.37
2023-02-26T14:33:32.649Z,50.91
2023-02-26T14:36:00.591Z,49.65
2023-02-26T14:38:28.454Z,49.65
2023-02-26T14:40:56.258Z,48.68
2023-02-26T14:43:24.196Z,49.36
2023-02-26T14:45:52.166Z,48.74
2023-02-26T14:48:20.736Z,49.17
2023-02-26T14:50:48.997Z,49.23
2023-02-26T14:53:16.941Z,48.98
2023-02-26T14:55:44.777Z,48.79
2023-02-26T14:58:12.737Z,48.03
2023-02-26T15:00:41.068Z,47.88
2023-02-26T15:03:08.878Z,48.22
2023-02-26T15:05:36.776Z,49.34
2023-02-26T15:08:05.284Z,49.12
2023-02-26T15:10:33.108Z,48.35
2023-02-26T15:13:01.995Z,47.69
2023-02-26T15:15:29.711Z,47.19
2023-02-26T15:17:57.678Z,46.78
2023-02-26T15:20:25.834Z,47.61
2023-02-26T15:22:53.769Z,47.85
2023-02-26T15:25:21.676Z,47.59
2023-02-26T15:27:49.985Z,47.05
2023-02-26T15:30:17.926Z,45.91
2023-02-26T15:32:46.048Z,45.15
2023-02-26T15:35:13.914Z,44.56
2023-02-26T15:37:42.100Z,44.31
2023-02-26T15:40:09.987Z,43.82
2023-02-26T15:42:38.897Z,43.52
2023-02-26T15:45:07.625Z,43.20
2023-02-26T15:47:35.421Z,42.48
2023-02-26T15:50:03.782Z,43.15
2023-02-26T15:52:31.621Z,43.74
2023-02-26T15:55:00.165Z,45.45
2023-02-26T15:57:28.308Z,47.73
2023-02-26T15:59:56.106Z,49.46
2023-02-26T16:02:24.570Z,51.40
2023-02-26T16:04:53.423Z,52.30
2023-02-26T16:07:21.243Z,53.46
2023-02-26T16:09:49.691Z,53.59
2023-02-26T16:12:17.830Z,54.41
2023-02-26T16:14:46.053Z,53.90
2023-02-26T16:17:14.612Z,54.51
2023-02-26T16:19:43.056Z,54.49
2023-02-26T16:22:11.114Z,55.11
2023-02-26T16:24:38.935Z,55.25
2023-02-26T16:27:09.549Z,55.12
2023-02-26T16:29:37.436Z,55.36
2023-02-26T16:32:05.365Z,55.21
2023-02-26T16:34:36.853Z,55.94
2023-02-26T16:37:05.205Z,55.91
2023-02-26T16:39:33.716Z,55.79
2023-02-26T16:42:01.770Z,56.18
2023-02-26T16:44:29.494Z,56.27
2023-02-26T16:46:57.718Z,56.36
2023-02-26T16:49:25.633Z,56.70
2023-02-26T16:51:53.832Z,57.00
2023-02-26T16:54:21.638Z,57.21
2023-02-26T16:56:49.587Z,57.46
2023-02-26T16:59:17.907Z,57.61
2023-02-26T17:01:45.764Z,57.85
2023-02-26T17:04:14.246Z,57.53
2023-02-26T17:06:42.335Z,57.91
2023-02-26T17:09:10.683Z,58.50
2023-02-26T17:11:38.925Z,58.63
2023-02-26T17:14:07.184Z,58.58
2023-02-26T17:16:35.316Z,58.41
2023-02-26T17:19:03.470Z,58.25
2023-02-26T17:21:31.638Z,58.60
2023-02-26T17:23:59.791Z,58.83
2023-02-26T17:26:27.728Z,59.05
2023-02-26T17:28:55.852Z,58.91
2023-02-26T17:31:23.652Z,59.66
2023-02-26T17:33:52.615Z,59.65
2023-02-26T17:36:20.701Z,59.60
2023-02-26T17:38:48.695Z,59.61
2023-02-26T17:41:16.746Z,59.38
2023-02-26T17:43:44.930Z,59.91
2023-02-26T17:46:13.418Z,59.70
2023-02-26T17:48:41.657Z,59.70
2023-02-26T17:51:09.534Z,60.03
2023-02-26T17:53:41.550Z,60.19
2023-02-26T17:56:09.468Z,60.59
2023-02-26T17:58:37.521Z,60.10
2023-02-26T18:01:06.500Z,60.21
2023-02-26T18:03:34.646Z,61.10
2023-02-26T18:06:02.844Z,60.69
2023-02-26T18:08:30.690Z,61.43
2023-02-26T18:10:58.826Z,61.75
2023-02-26T18:13:26.790Z,61.34
2023-02-26T18:15:56.753Z,60.90
2023-02-26T18:18:25.131Z,61.44
2023-02-26T18:20:53.743Z,61.00
2023-02-26T18:23:21.991Z,61.02
2023-02-26T18:25:50.034Z,60.89
2023-02-26T18:28:18.471Z,60.94
2023-02-26T18:30:47.352Z,60.73
2023-02-26T18:33:17.422Z,61.46
2023-02-26T18:35:47.357Z,60.87
2023-02-26T18:38:15.745Z,61.01
2023-02-26T18:40:43.699Z,60.90
2023-02-26T18:43:13.448Z,60.84
2023-02-26T18:45:41.300Z,60.18
2023-02-26T18:48:09.548Z,60.30
2023-02-26T18:50:38.819Z,61.08
2023-02-26T18:53:06.608Z,61.07
2023-02-26T18:55:37.029Z,60.65
2023-02-26T18:58:05.097Z,60.83
2023-02-26T19:00:32.926Z,61.20
2023-02-26T19:03:00.891Z,61.28
2023-02-26T19:05:28.767Z,61.11
2023-02-26T19:07:56.670Z,61.34
2023-02-26T19:10:24.638Z,61.94
2023-02-26T19:12:53.079Z,61.60
2023-02-26T19:15:22.016Z,62.01
2023-02-26T19:17:49.998Z,62.00
2023-02-26T19:20:18.104Z,62.42
2023-02-26T19:22:46.858Z,62.43
2023-02-26T19:25:14.785Z,62.21
2023-02-26T19:27:42.992Z,62.65
2023-02-26T19:30:10.775Z,61.91
2023-02-26T19:32:39.431Z,61.94
2023-02-26T19:35:08.155Z,61.94
2023-02-26T19:37:36.150Z,61.15
2023-02-26T19:40:08.615Z,61.47
2023-02-26T19:42:36.445Z,62.00
2023-02-26T19:45:04.792Z,61.77
2023-02-26T19:47:32.819Z,61.99
2023-02-26T19:50:00.681Z,63.15
2023-02-26T19:52:31.418Z,62.63
2023-02-26T19:54:59.388Z,62.78
2023-02-26T19:57:28.134Z,62.66
2023-02-26T19:59:56.217Z,63.09
2023-02-26T20:02:24.191Z,62.55
2023-02-26T20:04:52.258Z,62.82
2023-02-26T20:07:20.131Z,63.62
2023-02-26T20:09:49.782Z,63.48
2023-02-26T20:12:17.681Z,63.19
2023-02-26T20:14:45.399Z,63.97
2023-02-26T20:17:14.706Z,63.45
2023-02-26T20:19:42.655Z,63.74
2023-02-26T20:22:10.541Z,64.11
2023-02-26T20:24:38.546Z,64.16
2023-02-26T20:27:07.372Z,63.56
2023-02-26T20:29:35.904Z,63.25
2023-02-26T20:32:03.805Z,63.35
2023-02-26T20:34:32.458Z,64.03
2023-02-26T20:37:00.434Z,63.44
2023-02-26T20:39:28.907Z,63.81
2023-02-26T20:41:56.917Z,64.30
2023-02-26T20:44:24.731Z,64.52
2023-02-26T20:46:53.295Z,64.73
2023-02-26T20:49:21.205Z,63.92
2023-02-26T20:51:50.711Z,64.13
2023-02-26T20:54:20.623Z,64.58
2023-02-26T20:56:49.002Z,64.94
2023-02-26T20:59:16.786Z,64.99
2023-02-26T21:01:44.707Z,64.55
2023-02-26T21:04:12.544Z,64.67
2023-02-26T21:06:40.630Z,64.76
2023-02-26T21:09:09.001Z,64.83
2023-02-26T21:11:37.416Z,64.97
2023-02-26T21:14:05.218Z,64.64
2023-02-26T21:16:33.046Z,65.44
2023-02-26T21:19:02.356Z,65.18
2023-02-26T21:21:31.002Z,64.96
2023-02-26T21:23:59.512Z,64.86
2023-02-26T21:26:30.092Z,65.26
2023-02-26T21:28:57.947Z,65.91
2023-02-26T21:56:49.533Z,65.65
2023-02-26T21:59:17.313Z,65.60
2023-02-26T22:01:45.217Z,65.63
2023-02-26T22:04:13.541Z,65.16
2023-02-26T22:06:41.262Z,65.98
2023-02-26T22:09:09.756Z,65.82
2023-02-26T22:11:37.747Z,65.85
2023-02-26T22:14:05.630Z,66.31
2023-02-26T22:16:33.507Z,66.08
2023-02-26T22:19:01.919Z,66.18
2023-02-26T22:21:30.507Z,66.59
2023-02-26T22:23:58.249Z,66.37
2023-02-26T22:26:26.048Z,67.15
2023-02-26T22:28:54.695Z,66.60
2023-02-26T22:31:22.578Z,66.41
2023-02-26T22:33:50.907Z,66.46
2023-02-26T22:36:18.591Z,66.43
2023-02-26T22:38:46.569Z,67.04
2023-02-26T22:41:14.646Z,67.05
2023-02-26T22:43:42.373Z,67.42
2023-02-26T22:46:10.424Z,66.80
2023-02-26T22:48:38.179Z,67.15
2023-02-26T22:51:05.857Z,67.11
2023-02-26T22:53:33.524Z,67.62
2023-02-26T22:56:01.262Z,67.71
2023-02-26T22:58:29.423Z,67.58
2023-02-26T23:00:57.190Z,67.48
2023-02-26T23:03:26.760Z,66.92
2023-02-26T23:05:54.416Z,67.63
2023-02-26T23:08:22.077Z,67.18
2023-02-26T23:10:50.326Z,67.67
2023-02-26T23:13:18.638Z,67.70
2023-02-26T23:15:47.127Z,67.77
2023-02-26T23:18:14.912Z,67.57
2023-02-26T23:20:42.626Z,67.41
2023-02-26T23:23:10.905Z,67.83
2023-02-26T23:25:39.074Z,67.91
2023-02-26T23:28:06.779Z,67.72
2023-02-26T23:30:34.653Z,68.28
2023-02-26T23:33:02.582Z,67.86
2023-02-26T23:35:30.261Z,67.89
2023-02-26T23:37:57.958Z,68.53
2023-02-26T23:40:25.773Z,68.25
2023-02-26T23:42:53.548Z,68.08
2023-02-26T23:45:21.188Z,68.72
2023-02-26T23:47:50.824Z,68.32
2023-02-26T23:50:18.453Z,67.94
2023-02-26T23:52:46.107Z,68.20
2023-02-26T23:55:13.768Z,68.71
2023-02-26T23:57:41.353Z,68.40
